createdAt,value
2022-10-05T00:01:13.303Z,2.90
2022-10-05T00:04:28.258Z,3.72
2022-10-05T00:07:30.667Z,3.35
2022-10-05T00:10:33.394Z,3.70
2022-10-05T00:13:35.890Z,3.60
2022-10-05T00:16:38.754Z,3.20
2022-10-05T00:19:42.978Z,3.45
2022-10-05T00:22:45.639Z,3.72
2022-10-05T00:25:48.374Z,3.30
2022-10-05T00:28:51.465Z,3.50
2022-10-05T00:31:54.023Z,3.10
2022-10-05T00:34:57.407Z,3.25
2022-10-05T00:38:00.119Z,3.53
2022-10-05T00:41:02.605Z,2.87
2022-10-05T00:44:11.031Z,3.10
2022-10-05T00:47:38.115Z,3.00
2022-10-05T00:50:53.180Z,3.00
2022-10-05T00:54:18.167Z,3.42
2022-10-05T00:57:33.974Z,3.20
2022-10-05T01:00:55.914Z,2.92
2022-10-05T01:04:06.360Z,3.40
2022-10-05T01:07:18.241Z,2.88
2022-10-05T01:10:29.583Z,2.97
2022-10-05T01:13:55.894Z,2.73
2022-10-05T01:17:05.781Z,3.00
2022-10-05T01:20:26.562Z,2.80
2022-10-05T01:23:38.179Z,3.08
2022-10-05T01:26:46.888Z,2.90
2022-10-05T01:29:59.012Z,3.00
2022-10-05T01:33:19.139Z,3.10
2022-10-05T01:37:06.781Z,2.80
2022-10-05T01:40:37.411Z,2.95
2022-10-05T01:44:11.913Z,2.70
2022-10-05T01:47:21.646Z,2.87
2022-10-05T01:50:43.825Z,2.33
2022-10-05T01:54:04.490Z,2.90
2022-10-05T01:57:19.928Z,2.90
2022-10-05T02:00:24.122Z,2.80
2022-10-05T02:03:40.182Z,2.60
2022-10-05T02:06:46.339Z,3.10
2022-10-05T02:10:03.286Z,2.83
2022-10-05T02:13:34.979Z,3.05
2022-10-05T02:16:40.967Z,3.13
2022-10-05T02:19:49.096Z,2.63
2022-10-05T02:22:54.458Z,3.08
2022-10-05T02:25:58.537Z,3.35
2022-10-05T02:29:09.624Z,2.78
2022-10-05T02:32:20.435Z,3.13
2022-10-05T02:35:24.585Z,2.50
2022-10-05T02:38:50.111Z,2.50
2022-10-05T02:42:11.066Z,2.92
2022-10-05T02:45:46.775Z,2.42
2022-10-05T02:49:08.808Z,3.30
2022-10-05T02:52:12.148Z,2.63
2022-10-05T02:55:28.649Z,2.60
2022-10-05T02:58:53.889Z,2.42
2022-10-05T03:02:07.982Z,2.60
2022-10-05T03:05:55.619Z,2.60
2022-10-05T03:09:07.922Z,2.50
2022-10-05T03:12:18.644Z,2.58
2022-10-05T03:15:50.330Z,2.50
2022-10-05T03:18:56.638Z,2.50
2022-10-05T03:22:06.221Z,3.00
2022-10-05T03:25:20.656Z,2.50
2022-10-05T03:28:54.025Z,2.50
2022-10-05T03:32:15.406Z,2.30
2022-10-05T03:35:35.928Z,2.53
2022-10-05T03:39:02.191Z,2.47
2022-10-05T03:42:38.990Z,2.43
2022-10-05T03:46:00.307Z,2.70
2022-10-05T03:49:32.109Z,2.80
2022-10-05T03:52:42.764Z,2.50
2022-10-05T03:56:01.362Z,2.63
2022-10-05T03:59:20.915Z,2.50
2022-10-05T04:02:37.005Z,2.60
2022-10-05T04:05:52.729Z,2.40
2022-10-05T04:09:07.728Z,2.40
2022-10-05T04:12:26.054Z,2.58
2022-10-05T04:15:32.270Z,2.40
2022-10-05T04:18:48.866Z,2.53
2022-10-05T04:22:09.938Z,2.50
2022-10-05T04:25:28.764Z,2.65
2022-10-05T04:28:41.677Z,2.60
2022-10-05T04:32:07.361Z,2.17
2022-10-05T04:35:41.319Z,2.58
2022-10-05T04:38:49.018Z,2.60
2022-10-05T04:42:13.953Z,2.10
2022-10-05T04:45:26.922Z,2.30
2022-10-05T04:48:50.667Z,2.30
2022-10-05T04:52:26.236Z,2.22
2022-10-05T04:55:49.139Z,2.70
2022-10-05T04:59:26.246Z,2.35
2022-10-05T05:02:33.179Z,2.65
2022-10-05T05:05:58.725Z,2.30
2022-10-05T05:09:12.093Z,2.15
2022-10-05T05:12:36.309Z,2.60
2022-10-05T05:15:51.116Z,2.50
2022-10-05T05:19:38.710Z,2.50
2022-10-05T05:23:15.625Z,2.40
2022-10-05T05:26:48.348Z,2.17
2022-10-05T05:30:22.054Z,2.50
2022-10-05T05:33:43.761Z,3.50
2022-10-05T05:37:15.810Z,3.67
2022-10-05T05:40:47.678Z,3.10
2022-10-05T05:44:06.012Z,3.05
2022-10-05T05:47:20.221Z,3.00
2022-10-05T05:50:34.071Z,3.08
2022-10-05T05:53:46.246Z,3.50
2022-10-05T05:57:11.020Z,3.00
2022-10-05T06:00:31.500Z,3.30
2022-10-05T06:03:51.509Z,3.40
2022-10-05T06:06:58.321Z,3.42
2022-10-05T06:10:29.509Z,3.83
2022-10-05T06:13:41.709Z,3.17
2022-10-05T06:16:53.931Z,3.33
2022-10-05T06:20:04.693Z,3.03
2022-10-05T06:23:17.581Z,3.00
2022-10-05T06:26:35.891Z,2.65
2022-10-05T06:29:51.858Z,2.83
2022-10-05T06:33:45.738Z,2.80
2022-10-05T06:37:13.090Z,3.08
2022-10-05T06:40:30.347Z,2.88
2022-10-05T06:43:54.684Z,3.25
2022-10-05T06:47:51.351Z,2.97
2022-10-05T06:51:25.639Z,2.70
2022-10-05T06:55:15.405Z,3.03
2022-10-05T06:58:26.322Z,2.83
2022-10-05T07:01:53.139Z,3.00
2022-10-05T07:05:14.978Z,3.17
2022-10-05T07:08:23.179Z,3.13
2022-10-05T07:11:35.331Z,3.03
2022-10-05T07:15:03.025Z,2.97
2022-10-05T07:18:08.733Z,3.00
2022-10-05T07:21:58.996Z,2.73
2022-10-05T07:25:19.678Z,2.78
2022-10-05T07:28:30.127Z,3.13
2022-10-05T07:31:41.795Z,3.00
2022-10-05T07:34:59.315Z,2.63
2022-10-05T07:38:33.945Z,2.63
2022-10-05T07:41:53.086Z,2.50
2022-10-05T07:45:08.534Z,2.90
2022-10-05T07:48:23.802Z,2.60
2022-10-05T07:51:41.060Z,2.90
2022-10-05T07:54:57.332Z,2.70
2022-10-05T07:58:29.888Z,2.50
2022-10-05T08:01:42.183Z,3.20
2022-10-05T08:04:56.290Z,2.75
2022-10-05T08:08:44.078Z,3.20
2022-10-05T08:12:06.386Z,2.77
2022-10-05T08:15:18.066Z,2.85
2022-10-05T08:18:49.625Z,2.88
2022-10-05T08:21:59.807Z,2.63
2022-10-05T08:25:06.269Z,2.90
2022-10-05T08:28:26.978Z,2.73
2022-10-05T08:31:34.783Z,3.20
2022-10-05T08:35:04.707Z,3.00
2022-10-05T08:38:16.820Z,2.78
2022-10-05T08:41:44.222Z,3.20
2022-10-05T08:45:07.834Z,2.60
2022-10-05T08:48:42.738Z,2.67
2022-10-05T08:52:07.086Z,2.75
2022-10-05T08:55:15.742Z,2.88
2022-10-05T08:58:39.587Z,2.95
2022-10-05T09:02:14.382Z,3.17
2022-10-05T09:05:34.350Z,3.35
2022-10-05T09:09:17.184Z,2.95
2022-10-05T09:12:26.161Z,3.40
2022-10-05T09:15:51.848Z,2.97
2022-10-05T09:19:00.575Z,2.90
2022-10-05T09:22:34.720Z,3.63
2022-10-05T09:26:00.595Z,3.10
2022-10-05T09:29:11.144Z,3.42
2022-10-05T09:32:32.558Z,3.38
2022-10-05T09:35:55.041Z,2.93
2022-10-05T09:39:18.688Z,3.00
2022-10-05T09:42:21.781Z,2.97
2022-10-05T09:45:25.137Z,2.80
2022-10-05T09:48:42.948Z,2.75
2022-10-05T09:52:51.972Z,3.30
2022-10-05T09:56:20.977Z,2.85
2022-10-05T09:59:52.463Z,3.85
2022-10-05T10:03:39.528Z,2.85
2022-10-05T10:06:46.505Z,3.08
2022-10-05T10:10:06.401Z,2.80
2022-10-05T10:13:34.775Z,2.78
2022-10-05T10:16:43.483Z,3.05
2022-10-05T10:20:13.982Z,2.88
2022-10-05T10:23:34.465Z,3.35
2022-10-05T10:26:55.442Z,2.80
2022-10-05T10:30:09.841Z,3.13
2022-10-05T10:34:08.726Z,3.25
2022-10-05T10:37:40.499Z,2.97
2022-10-05T10:41:05.354Z,3.38
2022-10-05T10:44:34.107Z,2.80
2022-10-05T10:48:12.203Z,3.20
2022-10-05T10:51:43.806Z,3.22
2022-10-05T10:54:55.917Z,3.10
2022-10-05T10:58:41.147Z,2.80
2022-10-05T11:02:22.527Z,2.97
2022-10-05T11:05:35.144Z,2.88
2022-10-05T11:08:59.333Z,3.67
2022-10-05T11:12:47.676Z,3.30
2022-10-05T11:15:56.184Z,3.10
2022-10-05T11:19:59.584Z,3.30
2022-10-05T11:23:12.461Z,3.10
2022-10-05T11:26:36.552Z,3.00
2022-10-05T11:30:05.683Z,2.78
2022-10-05T11:33:29.381Z,3.15
2022-10-05T11:36:53.521Z,2.80
2022-10-05T11:40:24.117Z,3.58
2022-10-05T11:44:06.326Z,3.10
2022-10-05T11:47:23.389Z,3.10
2022-10-05T11:50:30.548Z,2.97
2022-10-05T11:53:40.766Z,2.80
2022-10-05T11:57:01.911Z,2.72
2022-10-05T12:00:13.890Z,3.00
2022-10-05T12:03:34.340Z,2.95
2022-10-05T12:06:51.449Z,3.08
2022-10-05T12:10:14.772Z,3.57
2022-10-05T12:13:35.985Z,3.40
2022-10-05T12:16:52.908Z,2.65
2022-10-05T12:20:03.031Z,2.92
2022-10-05T12:23:42.527Z,2.75
2022-10-05T12:26:55.377Z,2.90
2022-10-05T12:30:18.607Z,2.42
2022-10-05T12:33:35.606Z,3.10
2022-10-05T12:37:10.191Z,2.53
2022-10-05T12:40:35.341Z,2.90
2022-10-05T12:44:06.132Z,2.73
2022-10-05T12:47:43.583Z,2.65
2022-10-05T12:51:04.980Z,2.55
2022-10-05T12:54:34.497Z,2.60
2022-10-05T12:58:21.317Z,2.83
2022-10-05T13:01:40.549Z,3.07
2022-10-05T13:04:51.342Z,2.47
2022-10-05T13:08:00.551Z,2.97
2022-10-05T13:11:14.087Z,2.63
2022-10-05T13:14:57.676Z,2.80
2022-10-05T13:18:22.036Z,2.50
2022-10-05T13:21:30.592Z,2.53
2022-10-05T13:24:54.219Z,2.83
2022-10-05T13:28:17.662Z,2.60
2022-10-05T13:31:39.865Z,2.80
2022-10-05T13:34:51.226Z,2.73
2022-10-05T13:38:25.676Z,2.33
2022-10-05T13:41:51.265Z,2.95
2022-10-05T13:44:59.526Z,2.50
2022-10-05T13:48:18.524Z,3.45
2022-10-05T13:51:30.110Z,2.50
2022-10-05T13:54:38.159Z,2.58
2022-10-05T13:57:57.870Z,2.53
2022-10-05T14:01:28.353Z,2.88
2022-10-05T14:04:47.047Z,2.58
2022-10-05T14:08:16.012Z,2.70
2022-10-05T14:11:26.926Z,2.75
2022-10-05T14:14:42.128Z,3.08
2022-10-05T14:17:44.841Z,2.53
2022-10-05T14:21:08.399Z,2.75
2022-10-05T14:24:45.140Z,2.53
2022-10-05T14:27:58.169Z,2.55
2022-10-05T14:31:06.222Z,2.47
2022-10-05T14:34:29.254Z,2.30
2022-10-05T14:37:43.367Z,2.30
2022-10-05T14:40:46.539Z,2.40
2022-10-05T14:43:59.289Z,2.38
2022-10-05T14:47:17.357Z,2.40
2022-10-05T14:50:26.448Z,2.50
2022-10-05T14:53:43.449Z,2.35
2022-10-05T14:56:53.204Z,2.90
2022-10-05T15:00:00.438Z,2.50
2022-10-05T15:03:16.291Z,2.20
2022-10-05T15:06:28.213Z,2.53
2022-10-05T15:09:51.814Z,2.17
2022-10-05T15:12:58.455Z,2.47
2022-10-05T15:16:11.546Z,2.25
2022-10-05T15:19:32.324Z,2.65
2022-10-05T15:23:14.351Z,2.30
2022-10-05T15:26:42.649Z,2.75
2022-10-05T15:30:09.338Z,2.20
2022-10-05T15:33:24.411Z,2.20
2022-10-05T15:37:09.214Z,2.22
2022-10-05T15:40:22.267Z,2.50
2022-10-05T15:43:26.599Z,2.63
2022-10-05T15:46:41.434Z,2.57
2022-10-05T15:50:12.820Z,2.80
2022-10-05T15:53:23.356Z,2.67
2022-10-05T15:56:34.841Z,2.78
2022-10-05T16:00:00.860Z,2.70
2022-10-05T16:03:17.453Z,2.77
2022-10-05T16:07:04.506Z,2.50
2022-10-05T16:10:14.443Z,3.20
2022-10-05T16:13:22.578Z,2.33
2022-10-05T16:16:28.097Z,2.55
2022-10-05T16:19:42.011Z,3.10
2022-10-05T16:22:44.402Z,2.60
2022-10-05T16:25:47.146Z,3.20
2022-10-05T16:29:05.140Z,2.80
2022-10-05T16:32:13.013Z,2.72
2022-10-05T16:35:27.523Z,2.53
2022-10-05T16:38:43.700Z,2.30
2022-10-05T16:41:57.531Z,2.58
2022-10-05T16:45:09.072Z,2.20
2022-10-05T16:48:21.396Z,2.67
2022-10-05T16:51:31.168Z,2.63
2022-10-05T16:54:45.424Z,2.85
2022-10-05T16:57:56.927Z,3.05
2022-10-05T17:01:24.120Z,2.58
2022-10-05T17:04:48.110Z,2.97
2022-10-05T17:08:11.390Z,2.60
2022-10-05T17:11:22.909Z,3.00
2022-10-05T17:14:48.384Z,2.85
2022-10-05T17:18:11.349Z,2.20
2022-10-05T17:21:34.845Z,2.50
2022-10-05T17:24:52.109Z,2.80
2022-10-05T17:28:22.999Z,3.05
2022-10-05T17:31:25.988Z,3.13
2022-10-05T17:34:31.219Z,2.95
2022-10-05T17:37:42.288Z,3.33
2022-10-05T17:41:00.166Z,3.33
2022-10-05T17:44:22.000Z,3.25
2022-10-05T17:48:00.654Z,3.17
2022-10-05T17:51:32.655Z,3.05
2022-10-05T17:55:03.749Z,3.25
2022-10-05T17:58:27.440Z,2.90
2022-10-05T18:01:39.153Z,2.97
2022-10-05T18:04:51.476Z,2.90
2022-10-05T18:08:16.673Z,3.20
2022-10-05T18:11:31.304Z,2.78
2022-10-05T18:14:52.986Z,3.10
2022-10-05T18:18:01.503Z,3.08
2022-10-05T18:21:30.542Z,3.13
2022-10-05T18:25:04.717Z,2.90
2022-10-05T18:28:28.823Z,3.08
2022-10-05T18:31:50.290Z,3.20
2022-10-05T18:35:04.369Z,3.30
2022-10-05T18:38:26.295Z,3.13
2022-10-05T18:41:37.300Z,3.00
2022-10-05T18:44:45.097Z,2.95
2022-10-05T18:48:01.744Z,3.50
2022-10-05T18:51:28.582Z,3.40
2022-10-05T18:54:43.326Z,3.47
2022-10-05T18:57:58.890Z,3.15
2022-10-05T19:01:21.009Z,3.50
2022-10-05T19:04:32.298Z,3.63
2022-10-05T19:08:14.017Z,3.55
2022-10-05T19:11:28.741Z,3.53
2022-10-05T19:14:55.913Z,3.33
2022-10-05T19:18:10.525Z,3.85
2022-10-05T19:21:33.172Z,3.83
2022-10-05T19:25:13.434Z,3.83
2022-10-05T19:28:21.852Z,3.88
2022-10-05T19:31:30.957Z,4.00
2022-10-05T19:34:53.050Z,4.47
2022-10-05T19:38:15.232Z,3.70
2022-10-05T19:41:23.022Z,3.88
2022-10-05T19:44:56.215Z,4.18
2022-10-05T19:48:23.229Z,4.00
2022-10-05T19:51:27.659Z,4.47
2022-10-05T19:54:30.216Z,4.43
2022-10-05T19:57:32.824Z,4.35
2022-10-05T20:00:35.624Z,4.72
2022-10-05T20:03:38.238Z,4.35
2022-10-05T20:06:41.517Z,4.45
2022-10-05T20:10:19.994Z,4.77
2022-10-05T20:13:23.221Z,4.35
2022-10-05T20:20:10.042Z,4.30
2022-10-05T20:23:23.393Z,4.53
2022-10-05T20:27:02.153Z,4.60
2022-10-05T20:30:07.409Z,3.78
2022-10-05T20:33:14.757Z,3.97
2022-10-05T20:36:17.267Z,3.95
2022-10-05T20:39:21.457Z,4.07
2022-10-05T20:42:24.031Z,4.07
2022-10-05T20:45:26.522Z,3.88
2022-10-05T20:48:29.510Z,3.88
2022-10-05T20:51:32.392Z,3.72
2022-10-05T20:54:34.934Z,4.05
2022-10-05T20:57:46.191Z,4.17
2022-10-05T21:01:09.094Z,4.00
2022-10-05T21:04:11.860Z,5.20
2022-10-05T21:07:19.954Z,4.10
2022-10-05T21:10:22.973Z,4.68
2022-10-05T21:13:26.759Z,4.17
2022-10-05T21:16:29.815Z,4.40
2022-10-05T21:19:38.361Z,4.50
2022-10-05T21:22:41.222Z,4.50
2022-10-05T21:25:43.672Z,4.57
2022-10-05T21:28:46.189Z,4.23
2022-10-05T21:31:48.782Z,4.38
2022-10-05T21:34:51.401Z,4.10
2022-10-05T21:37:53.968Z,4.75
2022-10-05T21:40:57.935Z,4.50
2022-10-05T21:44:00.507Z,4.27
2022-10-05T21:47:04.350Z,4.20
2022-10-05T21:50:08.749Z,4.28
2022-10-05T21:53:13.484Z,4.20
2022-10-05T21:56:19.668Z,4.70
2022-10-05T21:59:26.605Z,4.40
2022-10-05T22:02:29.003Z,4.45
2022-10-05T22:05:32.270Z,4.03
2022-10-05T22:08:35.707Z,4.57
2022-10-05T22:11:38.319Z,4.28
2022-10-05T22:14:42.712Z,4.67
2022-10-05T22:17:46.223Z,4.53
2022-10-05T22:20:51.581Z,4.78
2022-10-05T22:23:54.285Z,4.38
2022-10-05T22:26:56.772Z,4.15
2022-10-05T22:29:59.437Z,4.27
2022-10-05T22:33:02.149Z,4.15
2022-10-05T22:36:06.051Z,4.13
2022-10-05T22:39:08.916Z,4.60
2022-10-05T22:42:11.450Z,4.63
2022-10-05T22:45:14.401Z,4.70
2022-10-05T22:48:17.310Z,4.47
2022-10-05T22:51:19.841Z,4.38
2022-10-05T22:54:25.255Z,4.50
2022-10-05T22:57:37.918Z,4.50
2022-10-05T23:00:57.676Z,4.20
2022-10-05T23:04:01.714Z,4.43
2022-10-05T23:07:05.079Z,4.25
2022-10-05T23:10:10.491Z,4.05
2022-10-05T23:13:12.941Z,4.22
2022-10-05T23:16:18.223Z,4.03
2022-10-05T23:19:22.648Z,4.60
2022-10-05T23:22:25.502Z,4.40
2022-10-05T23:25:27.903Z,4.55
2022-10-05T23:28:30.947Z,4.55
2022-10-05T23:31:34.569Z,4.60
2022-10-05T23:34:37.382Z,4.75
2022-10-05T23:37:43.274Z,4.50
2022-10-05T23:40:47.536Z,4.63
2022-10-05T23:43:50.107Z,4.28
2022-10-05T23:46:52.645Z,4.70
2022-10-05T23:49:55.547Z,4.38
2022-10-05T23:52:58.185Z,4.35
2022-10-05T23:56:01.068Z,4.60
2022-10-05T23:59:03.707Z,4.40
